Time;durP1;ratioP1;P1;durP2;ratioP2;P2;SDS_P1;SDS_P2;PMS_P1;PMS_P2;Temp;Humidity;BMP_temperature;BMP_pressure;BME280_temperature;BME280_humidity;BME280_pressure;Samples;Min_cycle;Max_cycle;Signal;HPM_P1;HPM_P2
2022/04/06 00:00:38;;;;;;;27.15;14.10;;;;;;;;;;5068564;28;20044;-85
2022/04/06 00:03:24;;;;;;;19.73;10.52;;;;;;;;;;5074110;28;20044;-85
2022/04/06 00:06:10;;;;;;;15.05;9.30;;;;;;;;;;5074845;28;20036;-82
2022/04/06 00:08:56;;;;;;;18.83;8.77;;;;;;;;;;5070476;28;20036;-82
2022/04/06 00:11:41;;;;;;;14.05;7.35;;;;;;;;;;5070798;28;20040;-83
2022/04/06 00:14:26;;;;;;;12.18;7.22;;;;;;;;;;5053026;28;20433;-83
2022/04/06 00:17:13;;;;;;;14.82;8.30;;;;;;;;;;5081674;28;20048;-87
2022/04/06 00:19:59;;;;;;;18.00;8.98;;;;;;;;;;5060079;28;20044;-84
2022/04/06 00:22:45;;;;;;;36.10;17.02;;;;;;;;;;5074655;28;20044;-84
2022/04/06 00:25:30;;;;;;;28.65;13.20;;;;;;;;;;5065461;28;20044;-86
2022/04/06 00:28:15;;;;;;;33.80;13.70;;;;;;;;;;5051755;28;20393;-85
2022/04/06 00:31:01;;;;;;;31.98;14.50;;;;;;;;;;5065610;28;20036;-86
2022/04/06 00:33:45;;;;;;;25.50;12.70;;;;;;;;;;5072738;28;20049;-86
2022/04/06 00:36:32;;;;;;;27.10;12.57;;;;;;;;;;5051582;28;20036;-81
2022/04/06 00:39:17;;;;;;;26.30;12.65;;;;;;;;;;5073695;28;20045;-85
2022/04/06 00:42:03;;;;;;;25.33;12.48;;;;;;;;;;5079573;28;20044;-84
2022/04/06 00:44:49;;;;;;;24.35;11.65;;;;;;;;;;5051255;28;20037;-82
2022/04/06 00:47:34;;;;;;;33.35;14.52;;;;;;;;;;5065714;28;20040;-83
2022/04/06 00:50:20;;;;;;;19.70;10.63;;;;;;;;;;5059038;28;20053;-82
2022/04/06 00:53:06;;;;;;;19.52;9.90;;;;;;;;;;5051219;28;20041;-87
2022/04/06 00:55:52;;;;;;;14.00;8.48;;;;;;;;;;5073388;28;20049;-86
2022/04/06 00:58:37;;;;;;;13.70;7.70;;;;;;;;;;5050523;28;20036;-85
2022/04/06 01:01:22;;;;;;;10.88;7.00;;;;;;;;;;5079814;28;20052;-85
2022/04/06 01:04:08;;;;;;;13.55;7.40;;;;;;;;;;5065498;28;20044;-83
2022/04/06 01:06:54;;;;;;;13.02;7.05;;;;;;;;;;5068796;28;20044;-85
2022/04/06 01:09:39;;;;;;;12.65;7.38;;;;;;;;;;5069145;28;20048;-88
2022/04/06 01:12:27;;;;;;;14.88;7.28;;;;;;;;;;5062090;28;20044;-85
2022/04/06 01:15:13;;;;;;;13.02;7.40;;;;;;;;;;5069532;28;20056;-88
2022/04/06 01:17:58;;;;;;;15.32;8.93;;;;;;;;;;5068153;28;20048;-87
2022/04/06 01:20:43;;;;;;;19.20;9.13;;;;;;;;;;5068756;28;20045;-83
2022/04/06 01:23:30;;;;;;;14.63;8.70;;;;;;;;;;5062260;28;20048;-82
2022/04/06 01:26:15;;;;;;;15.65;8.35;;;;;;;;;;5069191;28;20044;-83
2022/04/06 01:29:01;;;;;;;19.85;9.95;;;;;;;;;;5068965;28;20431;-85
2022/04/06 01:31:47;;;;;;;15.70;8.55;;;;;;;;;;5066029;28;20397;-83
2022/04/06 01:34:33;;;;;;;16.05;8.90;;;;;;;;;;5076988;28;20045;-86
2022/04/06 01:37:18;;;;;;;13.93;7.93;;;;;;;;;;5045067;28;20044;-85
2022/04/06 01:40:05;;;;;;;16.00;7.80;;;;;;;;;;5057892;28;20404;-83
2022/04/06 01:42:50;;;;;;;17.48;9.20;;;;;;;;;;5045009;28;20045;-85
2022/04/06 01:45:36;;;;;;;9.95;6.00;;;;;;;;;;5080270;28;20052;-87
2022/04/06 01:48:21;;;;;;;8.98;5.93;;;;;;;;;;5071376;28;20044;-82
2022/04/06 01:54:10;;;;;;;13.57;5.85;;;;;;;;;;5074721;28;20040;-86
2022/04/06 01:56:56;;;;;;;19.23;6.35;;;;;;;;;;5096218;28;20493;-84
2022/04/06 01:59:42;;;;;;;10.50;6.00;;;;;;;;;;5065535;28;20040;-83
2022/04/06 02:02:32;;;;;;;15.90;7.97;;;;;;;;;;5062960;28;20040;-82
2022/04/06 02:05:19;;;;;;;15.32;7.65;;;;;;;;;;5066243;28;20496;-84
2022/04/06 02:08:06;;;;;;;15.07;7.40;;;;;;;;;;5054508;28;20481;-83
2022/04/06 02:10:52;;;;;;;13.05;8.27;;;;;;;;;;5067517;28;20036;-86
2022/04/06 02:13:39;;;;;;;13.30;7.80;;;;;;;;;;5059023;28;20045;-86
2022/04/06 02:16:24;;;;;;;18.42;7.82;;;;;;;;;;5065181;28;20492;-83
2022/04/06 02:19:10;;;;;;;15.63;8.32;;;;;;;;;;5074754;28;20538;-83
2022/04/06 02:21:55;;;;;;;14.45;7.15;;;;;;;;;;5053441;28;20045;-85
2022/04/06 02:24:41;;;;;;;14.50;8.35;;;;;;;;;;5067474;28;20040;-86
2022/04/06 02:27:26;;;;;;;16.02;9.40;;;;;;;;;;5082083;28;20040;-85
2022/04/06 02:30:13;;;;;;;17.15;9.45;;;;;;;;;;5060699;28;20045;-87
2022/04/06 02:32:58;;;;;;;19.17;10.63;;;;;;;;;;5067826;28;20044;-84
2022/04/06 02:35:45;;;;;;;24.58;9.73;;;;;;;;;;5067776;28;20393;-83
2022/04/06 02:38:30;;;;;;;19.35;10.40;;;;;;;;;;5052868;28;20041;-83
2022/04/06 02:41:16;;;;;;;18.05;9.90;;;;;;;;;;5067338;28;20048;-84
2022/04/06 02:44:01;;;;;;;19.52;11.15;;;;;;;;;;5067188;28;20037;-85
2022/04/06 02:46:48;;;;;;;21.15;9.70;;;;;;;;;;5053824;28;20480;-85
2022/04/06 02:49:33;;;;;;;19.35;9.90;;;;;;;;;;5067793;28;20480;-84
2022/04/06 02:52:18;;;;;;;21.10;11.02;;;;;;;;;;5066868;28;20036;-83
2022/04/06 02:55:05;;;;;;;22.10;10.32;;;;;;;;;;5048664;28;20033;-85
2022/04/06 02:57:51;;;;;;;17.20;9.80;;;;;;;;;;5081617;28;20056;-81
2022/04/06 03:00:36;;;;;;;18.00;9.27;;;;;;;;;;5077051;28;20396;-82
2022/04/06 03:03:22;;;;;;;16.67;8.80;;;;;;;;;;5054924;28;20457;-84
2022/04/06 03:06:08;;;;;;;17.08;8.70;;;;;;;;;;5046947;28;20041;-84
2022/04/06 03:08:54;;;;;;;13.73;8.07;;;;;;;;;;5061339;28;20389;-85
2022/04/06 03:11:39;;;;;;;19.23;10.00;;;;;;;;;;5055424;28;20044;-83
2022/04/06 03:14:25;;;;;;;22.00;9.98;;;;;;;;;;5069006;28;20044;-84
2022/04/06 03:17:10;;;;;;;22.67;11.48;;;;;;;;;;5067821;28;20045;-85
2022/04/06 03:19:56;;;;;;;37.50;17.65;;;;;;;;;;5061657;28;20052;-86
2022/04/06 03:22:41;;;;;;;77.22;28.48;;;;;;;;;;5067331;28;20077;-86
2022/04/06 03:25:26;;;;;;;62.80;26.05;;;;;;;;;;5075908;28;20048;-83
2022/04/06 03:28:11;;;;;;;48.67;22.35;;;;;;;;;;5076504;28;20044;-84
2022/04/06 03:30:57;;;;;;;52.28;21.90;;;;;;;;;;5054717;28;20473;-83
2022/04/06 03:33:43;;;;;;;48.38;21.58;;;;;;;;;;5085160;28;20036;-79
2022/04/06 03:36:28;;;;;;;48.17;17.30;;;;;;;;;;5062050;28;20044;-85
2022/04/06 03:39:13;;;;;;;26.13;13.68;;;;;;;;;;5065796;28;20044;-83
2022/04/06 03:42:00;;;;;;;33.28;14.98;;;;;;;;;;5065860;28;20484;-84
2022/04/06 03:44:45;;;;;;;46.72;18.73;;;;;;;;;;5066678;28;20044;-84
2022/04/06 03:47:33;;;;;;;42.20;18.83;;;;;;;;;;5073900;28;20048;-85
2022/04/06 03:50:19;;;;;;;37.90;16.42;;;;;;;;;;5066287;28;20492;-84
2022/04/06 03:53:05;;;;;;;39.40;17.88;;;;;;;;;;5066281;28;20048;-85
2022/04/06 03:55:50;;;;;;;42.75;18.67;;;;;;;;;;5065676;28;20063;-86
2022/04/06 03:58:36;;;;;;;37.80;20.05;;;;;;;;;;5067916;28;20045;-81
2022/04/06 04:01:22;;;;;;;43.17;18.90;;;;;;;;;;5063412;28;20048;-84
2022/04/06 04:04:10;;;;;;;38.03;17.85;;;;;;;;;;5075668;28;20048;-86
2022/04/06 04:06:55;;;;;;;35.05;16.88;;;;;;;;;;5065861;28;20045;-84
2022/04/06 04:09:41;;;;;;;32.13;15.98;;;;;;;;;;5051909;28;20053;-84
2022/04/06 04:12:27;;;;;;;34.88;17.02;;;;;;;;;;5065593;28;20040;-84
2022/04/06 04:15:12;;;;;;;32.92;16.63;;;;;;;;;;5058741;28;20417;-85
2022/04/06 04:17:58;;;;;;;39.30;16.55;;;;;;;;;;5051860;28;20036;-82
2022/04/06 04:20:45;;;;;;;40.30;17.70;;;;;;;;;;5066076;28;20052;-84
2022/04/06 04:23:30;;;;;;;39.22;19.85;;;;;;;;;;5065817;28;20036;-84
2022/04/06 04:26:16;;;;;;;46.60;19.67;;;;;;;;;;5051709;28;20041;-83
2022/04/06 04:29:01;;;;;;;41.28;19.75;;;;;;;;;;5058977;28;20048;-83
2022/04/06 04:31:47;;;;;;;37.90;20.15;;;;;;;;;;5066074;28;20048;-85
2022/04/06 04:34:32;;;;;;;42.38;19.42;;;;;;;;;;5065661;28;20397;-86
2022/04/06 04:37:17;;;;;;;47.25;19.90;;;;;;;;;;5072941;28;20048;-86
2022/04/06 04:40:04;;;;;;;37.97;19.30;;;;;;;;;;5063701;28;20045;-81
2022/04/06 04:42:51;;;;;;;42.40;20.98;;;;;;;;;;5051894;28;20476;-83
2022/04/06 04:45:35;;;;;;;43.03;21.27;;;;;;;;;;5040620;28;20049;-83
2022/04/06 04:48:20;;;;;;;49.92;22.02;;;;;;;;;;5068855;28;20488;-84
2022/04/06 04:51:06;;;;;;;70.72;33.22;;;;;;;;;;5066727;28;20393;-84
2022/04/06 04:53:51;;;;;;;68.22;31.35;;;;;;;;;;5075328;28;20041;-85
2022/04/06 04:56:40;;;;;;;57.72;26.80;;;;;;;;;;5077080;28;20484;-84
2022/04/06 04:59:26;;;;;;;67.88;26.60;;;;;;;;;;5068522;28;20396;-83
2022/04/06 05:02:11;;;;;;;58.60;22.83;;;;;;;;;;5060092;28;20148;-84
2022/04/06 05:04:57;;;;;;;60.28;23.10;;;;;;;;;;5072756;28;20052;-83
2022/04/06 05:07:43;;;;;;;93.50;33.03;;;;;;;;;;5089190;28;20044;-83
2022/04/06 05:10:28;;;;;;;79.78;28.23;;;;;;;;;;5080768;28;20041;-82
2022/04/06 05:13:14;;;;;;;71.13;25.90;;;;;;;;;;5079477;28;20052;-83
2022/04/06 05:16:00;;;;;;;66.82;26.65;;;;;;;;;;5069180;28;20397;-83
2022/04/06 05:18:46;;;;;;;85.18;29.63;;;;;;;;;;5054154;28;20041;-82
2022/04/06 05:21:31;;;;;;;54.58;23.92;;;;;;;;;;5065728;28;20473;-82
2022/04/06 05:24:17;;;;;;;65.38;28.42;;;;;;;;;;5082388;28;20048;-80
2022/04/06 05:27:03;;;;;;;61.55;28.77;;;;;;;;;;5074725;28;20052;-82
2022/04/06 05:29:49;;;;;;;70.30;32.40;;;;;;;;;;5070931;28;20048;-84
2022/04/06 05:32:34;;;;;;;69.13;30.77;;;;;;;;;;5082690;28;20393;-79
2022/04/06 05:35:23;;;;;;;56.22;27.35;;;;;;;;;;5082202;28;20033;-83
2022/04/06 05:38:09;;;;;;;59.75;26.30;;;;;;;;;;5080924;28;20053;-81
2022/04/06 05:40:54;;;;;;;55.33;25.88;;;;;;;;;;5078499;28;20049;-83
2022/04/06 05:43:40;;;;;;;54.05;27.23;;;;;;;;;;5085755;28;20048;-82
2022/04/06 05:46:26;;;;;;;63.15;26.35;;;;;;;;;;5080967;28;20480;-82
2022/04/06 05:49:11;;;;;;;56.15;28.25;;;;;;;;;;5073119;28;20044;-80
2022/04/06 05:51:57;;;;;;;75.68;32.47;;;;;;;;;;5088662;28;20036;-80
2022/04/06 05:54:42;;;;;;;68.53;30.95;;;;;;;;;;5086023;28;20041;-84
2022/04/06 05:57:28;;;;;;;49.42;28.52;;;;;;;;;;5074095;28;20040;-85
2022/04/06 06:00:14;;;;;;;201.98;120.28;;;;;;;;;;5086177;28;20045;-83
2022/04/06 06:03:00;;;;;;;147.98;82.97;;;;;;;;;;5084641;28;20040;-83
2022/04/06 06:05:45;;;;;;;60.65;31.17;;;;;;;;;;5069765;28;20048;-83
2022/04/06 06:08:31;;;;;;;61.65;31.30;;;;;;;;;;5062475;28;20048;-83
2022/04/06 06:11:17;;;;;;;55.63;27.80;;;;;;;;;;5084246;28;20040;-84
2022/04/06 06:14:03;;;;;;;56.35;29.38;;;;;;;;;;5069965;28;20045;-84
2022/04/06 06:16:49;;;;;;;52.85;30.83;;;;;;;;;;5070180;28;20052;-84
2022/04/06 06:19:34;;;;;;;43.90;21.25;;;;;;;;;;5065773;28;20052;-83
2022/04/06 06:22:20;;;;;;;51.97;23.60;;;;;;;;;;5057385;28;20041;-82
2022/04/06 06:25:07;;;;;;;48.80;23.13;;;;;;;;;;5072360;28;20045;-83
2022/04/06 06:27:52;;;;;;;56.88;26.90;;;;;;;;;;5070075;28;20040;-85
2022/04/06 06:30:38;;;;;;;59.20;28.42;;;;;;;;;;5061128;28;20044;-83
2022/04/06 06:33:24;;;;;;;57.13;24.90;;;;;;;;;;5067661;28;20044;-83
2022/04/06 06:36:09;;;;;;;54.40;24.38;;;;;;;;;;5052977;28;20041;-82
2022/04/06 06:38:55;;;;;;;57.42;24.85;;;;;;;;;;5060540;28;20044;-82
2022/04/06 06:41:42;;;;;;;51.42;23.25;;;;;;;;;;5067452;28;20045;-81
2022/04/06 06:44:31;;;;;;;44.55;21.10;;;;;;;;;;5067464;28;20402;-82
2022/04/06 06:47:51;;;;;;;35.08;17.83;;;;;;;;;;5067031;28;20040;-83
2022/04/06 06:50:37;;;;;;;37.40;17.88;;;;;;;;;;5081198;28;20369;-83
2022/04/06 06:53:25;;;;;;;33.90;18.10;;;;;;;;;;5067188;28;20488;-83
2022/04/06 06:56:13;;;;;;;43.78;20.38;;;;;;;;;;5068199;28;20036;-80
2022/04/06 06:58:59;;;;;;;48.17;21.92;;;;;;;;;;5053680;28;20040;-84
2022/04/06 07:01:44;;;;;;;46.88;23.63;;;;;;;;;;5054030;28;20057;-82
2022/04/06 07:04:30;;;;;;;47.80;22.52;;;;;;;;;;5052428;28;20396;-84
2022/04/06 07:07:15;;;;;;;46.00;21.88;;;;;;;;;;5052547;28;20048;-82
2022/04/06 07:10:01;;;;;;;41.90;19.58;;;;;;;;;;5060661;28;20056;-83
2022/04/06 07:12:47;;;;;;;41.28;18.50;;;;;;;;;;5066359;28;20048;-83
2022/04/06 07:15:32;;;;;;;49.17;23.02;;;;;;;;;;5066828;28;20049;-82
2022/04/06 07:18:20;;;;;;;47.97;22.05;;;;;;;;;;5067033;28;20040;-83
2022/04/06 07:21:05;;;;;;;42.70;17.60;;;;;;;;;;5059862;28;20048;-82
2022/04/06 07:23:51;;;;;;;38.30;19.25;;;;;;;;;;5053113;28;20044;-83
2022/04/06 07:26:36;;;;;;;37.40;19.70;;;;;;;;;;5059855;28;20053;-83
2022/04/06 07:29:22;;;;;;;36.88;20.00;;;;;;;;;;5082200;28;20048;-83
2022/04/06 07:32:08;;;;;;;38.03;17.85;;;;;;;;;;5067446;28;20044;-83
2022/04/06 07:34:53;;;;;;;34.53;17.88;;;;;;;;;;5060272;28;20048;-83
2022/04/06 07:37:45;;;;;;;36.30;18.92;;;;;;;;;;5066805;28;20493;-82
2022/04/06 07:40:31;;;;;;;37.75;22.77;;;;;;;;;;5053391;28;20040;-82
2022/04/06 07:43:16;;;;;;;45.35;23.05;;;;;;;;;;5074291;28;20036;-82
2022/04/06 07:46:02;;;;;;;48.33;25.50;;;;;;;;;;5066367;28;20048;-84
2022/04/06 07:48:47;;;;;;;50.05;22.40;;;;;;;;;;5081391;28;20044;-81
2022/04/06 07:51:33;;;;;;;40.15;20.20;;;;;;;;;;5060293;28;20461;-84
2022/04/06 07:54:18;;;;;;;38.72;17.50;;;;;;;;;;5074873;28;20045;-83
2022/04/06 07:57:04;;;;;;;24.30;14.93;;;;;;;;;;5074109;28;20045;-83
2022/04/06 07:59:50;;;;;;;32.78;17.17;;;;;;;;;;5074778;28;20045;-84
2022/04/06 08:02:35;;;;;;;22.85;12.68;;;;;;;;;;5073386;28;20045;-80
2022/04/06 08:05:21;;;;;;;22.92;12.63;;;;;;;;;;5081163;28;20044;-81
2022/04/06 08:08:07;;;;;;;23.05;12.00;;;;;;;;;;5074917;28;20041;-81
2022/04/06 08:10:52;;;;;;;21.80;13.02;;;;;;;;;;5081412;28;20052;-84
2022/04/06 08:13:37;;;;;;;20.77;13.10;;;;;;;;;;5073678;28;20052;-81
2022/04/06 08:16:23;;;;;;;28.05;14.57;;;;;;;;;;5071929;28;20488;-82
2022/04/06 08:19:08;;;;;;;29.30;15.55;;;;;;;;;;5076786;28;20397;-79
2022/04/06 08:21:54;;;;;;;27.63;15.02;;;;;;;;;;5081487;28;20048;-82
2022/04/06 08:24:49;;;;;;;24.88;13.60;;;;;;;;;;5081724;28;20049;-80
2022/04/06 08:28:08;;;;;;;23.17;13.98;;;;;;;;;;5074396;28;20082;-81
2022/04/06 08:31:30;;;;;;;26.48;15.20;;;;;;;;;;5074045;28;20400;-83
2022/04/06 08:34:15;;;;;;;28.50;13.20;;;;;;;;;;5073969;28;20045;-82
2022/04/06 08:37:02;;;;;;;21.10;9.60;;;;;;;;;;5080582;28;20052;-81
2022/04/06 08:39:48;;;;;;;16.55;10.63;;;;;;;;;;5081117;28;20044;-83
2022/04/06 08:42:33;;;;;;;17.13;9.48;;;;;;;;;;5081019;28;20041;-82
2022/04/06 08:45:22;;;;;;;15.50;9.60;;;;;;;;;;5066037;28;20480;-81
2022/04/06 08:48:09;;;;;;;15.68;9.93;;;;;;;;;;5066963;28;20076;-82
2022/04/06 08:50:54;;;;;;;18.67;10.10;;;;;;;;;;5073435;28;20037;-82
2022/04/06 08:53:40;;;;;;;18.25;9.40;;;;;;;;;;5074319;28;20399;-82
2022/04/06 08:56:26;;;;;;;17.67;8.60;;;;;;;;;;5080562;28;20037;-83
2022/04/06 08:59:12;;;;;;;17.15;8.60;;;;;;;;;;5079946;28;20052;-84
2022/04/06 09:01:58;;;;;;;15.00;8.57;;;;;;;;;;5080224;28;20393;-87
2022/04/06 09:04:44;;;;;;;15.00;8.40;;;;;;;;;;5065554;28;20476;-83
2022/04/06 09:07:31;;;;;;;11.18;5.82;;;;;;;;;;5065930;28;20488;-86
2022/04/06 09:10:28;;;;;;;9.13;6.13;;;;;;;;;;5066033;28;20052;-81
2022/04/06 09:13:20;;;;;;;11.05;5.70;;;;;;;;;;5050789;28;20036;-83
2022/04/06 09:16:13;;;;;;;9.27;5.50;;;;;;;;;;5051230;28;20036;-86
2022/04/06 09:19:19;;;;;;;10.63;4.88;;;;;;;;;;5048282;28;20052;-82
2022/04/06 09:22:07;;;;;;;9.85;4.47;;;;;;;;;;5064899;28;20052;-85
2022/04/06 09:24:58;;;;;;;7.10;3.88;;;;;;;;;;5050694;28;20044;-83
2022/04/06 09:27:43;;;;;;;9.02;4.70;;;;;;;;;;5067579;28;20048;-85
2022/04/06 09:30:32;;;;;;;8.93;4.15;;;;;;;;;;5061077;28;20048;-85
2022/04/06 09:33:19;;;;;;;11.15;4.47;;;;;;;;;;5068706;28;20052;-84
2022/04/06 09:36:20;;;;;;;10.15;4.38;;;;;;;;;;5083186;28;20049;-82
2022/04/06 09:39:07;;;;;;;7.88;4.50;;;;;;;;;;5068019;28;20044;-84
2022/04/06 09:41:59;;;;;;;11.30;4.05;;;;;;;;;;5081721;28;20060;-84
2022/04/06 09:48:00;;;;;;;7.55;3.53;;;;;;;;;;5067762;28;20492;-83
2022/04/06 09:50:55;;;;;;;8.48;3.63;;;;;;;;;;5054800;28;20044;-81
2022/04/06 09:53:44;;;;;;;11.35;2.78;;;;;;;;;;5055004;28;20473;-82
2022/04/06 09:56:32;;;;;;;10.27;4.50;;;;;;;;;;5054214;28;20040;-83
2022/04/06 09:59:17;;;;;;;6.88;4.40;;;;;;;;;;5069339;28;20036;-85
2022/04/06 10:02:09;;;;;;;13.70;4.57;;;;;;;;;;5068019;28;20044;-81
2022/04/06 10:04:59;;;;;;;14.18;4.43;;;;;;;;;;5061912;28;20028;-84
2022/04/06 10:07:44;;;;;;;10.35;4.65;;;;;;;;;;5075727;28;20044;-83
2022/04/06 10:10:38;;;;;;;7.00;4.30;;;;;;;;;;5068425;28;20045;-85
2022/04/06 10:13:27;;;;;;;16.15;4.47;;;;;;;;;;5067682;28;20048;-83
2022/04/06 10:16:12;;;;;;;5.03;3.05;;;;;;;;;;5082401;28;20048;-83
2022/04/06 10:19:02;;;;;;;10.63;3.70;;;;;;;;;;5065057;28;20155;-84
2022/04/06 10:22:07;;;;;;;7.70;3.70;;;;;;;;;;5068058;28;20044;-82
2022/04/06 10:25:10;;;;;;;6.63;3.72;;;;;;;;;;5058236;28;20052;-82
2022/04/06 10:27:57;;;;;;;7.53;3.88;;;;;;;;;;5077172;28;20052;-82
2022/04/06 10:31:11;;;;;;;9.20;3.90;;;;;;;;;;5076625;28;20404;-83
2022/04/06 10:34:22;;;;;;;8.38;3.83;;;;;;;;;;5068232;28;20041;-81
2022/04/06 10:37:25;;;;;;;7.88;3.33;;;;;;;;;;5053758;28;20052;-84
2022/04/06 10:40:10;;;;;;;5.45;3.00;;;;;;;;;;5067412;28;20493;-83
2022/04/06 10:42:55;;;;;;;10.65;2.90;;;;;;;;;;5061169;28;20044;-82
2022/04/06 10:45:41;;;;;;;8.07;3.20;;;;;;;;;;5067999;28;20052;-82
2022/04/06 10:48:26;;;;;;;2.03;1.40;;;;;;;;;;5075772;28;20044;-84
2022/04/06 10:51:33;;;;;;;3.05;2.05;;;;;;;;;;5067580;28;20040;-82
2022/04/06 10:54:23;;;;;;;5.88;1.80;;;;;;;;;;5082229;28;20048;-83
2022/04/06 10:57:09;;;;;;;6.15;2.55;;;;;;;;;;5066845;28;20040;-79
2022/04/06 11:00:16;;;;;;;7.68;2.60;;;;;;;;;;5082202;28;20036;-79
2022/04/06 11:03:23;;;;;;;3.45;1.45;;;;;;;;;;5081604;28;20052;-80
2022/04/06 11:06:09;;;;;;;3.72;2.03;;;;;;;;;;5080892;28;20052;-81
2022/04/06 11:12:08;;;;;;;10.07;1.73;;;;;;;;;;5088257;28;20040;-82
2022/04/06 11:14:59;;;;;;;5.47;2.17;;;;;;;;;;5081189;28;20036;-80
2022/04/06 11:17:45;;;;;;;8.43;2.22;;;;;;;;;;5087881;28;20385;-82
2022/04/06 11:20:32;;;;;;;5.68;1.90;;;;;;;;;;5084074;28;20045;-80
2022/04/06 11:23:18;;;;;;;6.93;2.03;;;;;;;;;;5074465;28;20041;-80
2022/04/06 11:26:04;;;;;;;4.93;1.58;;;;;;;;;;5080865;28;20048;-79
2022/04/06 11:28:58;;;;;;;4.75;2.03;;;;;;;;;;5081120;28;20036;-80
2022/04/06 11:31:53;;;;;;;;;;;;;;;;;;5080718;28;20045;-83
2022/04/06 11:34:40;;;;;;;5.30;1.70;;;;;;;;;;5081318;28;19916;-82
2022/04/06 11:37:26;;;;;;;4.40;2.00;;;;;;;;;;5080978;28;20500;-82
2022/04/06 11:40:14;;;;;;;3.97;1.58;;;;;;;;;;5073836;28;20052;-82
2022/04/06 11:43:05;;;;;;;4.80;1.70;;;;;;;;;;5074605;28;20048;-80
2022/04/06 11:45:57;;;;;;;4.05;1.73;;;;;;;;;;5080927;28;20053;-81
2022/04/06 11:48:45;;;;;;;4.10;1.70;;;;;;;;;;5080385;28;20044;-82
2022/04/06 11:51:31;;;;;;;5.35;2.10;;;;;;;;;;5081167;28;20413;-81
2022/04/06 11:54:17;;;;;;;4.25;1.70;;;;;;;;;;5080709;28;20045;-82
2022/04/06 11:57:02;;;;;;;2.22;1.30;;;;;;;;;;5074475;28;20044;-81
2022/04/06 11:59:52;;;;;;;2.65;1.52;;;;;;;;;;5073971;28;20044;-82
2022/04/06 12:02:51;;;;;;;4.20;1.70;;;;;;;;;;5073961;28;20040;-82
2022/04/06 12:05:46;;;;;;;6.78;1.50;;;;;;;;;;5082818;28;20400;-82
2022/04/06 12:08:31;;;;;;;18.77;2.25;;;;;;;;;;5081260;28;20044;-83
2022/04/06 12:11:20;;;;;;;10.65;1.88;;;;;;;;;;5081594;28;20037;-82
2022/04/06 12:14:10;;;;;;;2.85;1.30;;;;;;;;;;5080507;28;20048;-80
2022/04/06 12:16:56;;;;;;;8.38;1.85;;;;;;;;;;5073981;28;20044;-83
2022/04/06 12:19:41;;;;;;;2.25;1.35;;;;;;;;;;5073821;28;20404;-83
2022/04/06 12:22:27;;;;;;;2.83;1.58;;;;;;;;;;5065561;28;20040;-82
2022/04/06 12:25:33;;;;;;;4.25;1.80;;;;;;;;;;5065581;28;20048;-82
2022/04/06 12:28:23;;;;;;;2.63;1.60;;;;;;;;;;5080245;28;20049;-82
2022/04/06 12:31:12;;;;;;;2.63;1.40;;;;;;;;;;5080622;28;20048;-83
2022/04/06 12:33:58;;;;;;;3.72;1.70;;;;;;;;;;5073791;28;20040;-83
2022/04/06 12:36:49;;;;;;;3.50;1.63;;;;;;;;;;5079900;28;20041;-81
2022/04/06 12:39:47;;;;;;;10.35;2.10;;;;;;;;;;5073500;28;20040;-83
2022/04/06 12:42:37;;;;;;;4.75;1.90;;;;;;;;;;5081052;28;20044;-82
2022/04/06 12:45:22;;;;;;;3.95;2.28;;;;;;;;;;5073676;28;20056;-82
2022/04/06 12:48:25;;;;;;;6.25;1.90;;;;;;;;;;5065781;28;20044;-80
2022/04/06 12:51:21;;;;;;;4.75;2.03;;;;;;;;;;5079925;28;20053;-81
2022/04/06 12:54:07;;;;;;;3.58;1.73;;;;;;;;;;5079160;28;20045;-82
2022/04/06 12:57:07;;;;;;;2.03;1.73;;;;;;;;;;5064544;28;20404;-82
2022/04/06 13:00:08;;;;;;;2.10;1.20;;;;;;;;;;5079806;28;20037;-83
2022/04/06 13:02:55;;;;;;;3.22;1.90;;;;;;;;;;5083926;28;20052;-83
2022/04/06 13:05:41;;;;;;;7.20;1.73;;;;;;;;;;5084011;28;20037;-83
2022/04/06 13:08:27;;;;;;;2.95;1.58;;;;;;;;;;5062192;28;20052;-79
2022/04/06 13:11:12;;;;;;;6.00;1.77;;;;;;;;;;5068485;28;20040;-82
2022/04/06 13:13:57;;;;;;;3.75;1.45;;;;;;;;;;5076806;28;20393;-81
2022/04/06 13:16:43;;;;;;;4.38;1.77;;;;;;;;;;5083901;28;20491;-82
2022/04/06 13:19:28;;;;;;;8.27;1.77;;;;;;;;;;5079357;28;20048;-83
2022/04/06 13:22:15;;;;;;;1.95;1.40;;;;;;;;;;5083777;28;20044;-84
2022/04/06 13:25:01;;;;;;;2.13;1.40;;;;;;;;;;5082893;28;20045;-83
2022/04/06 13:27:48;;;;;;;5.50;2.00;;;;;;;;;;5076710;28;20041;-80
2022/04/06 13:30:33;;;;;;;7.15;2.28;;;;;;;;;;5068687;28;20044;-80
2022/04/06 13:33:20;;;;;;;3.45;1.77;;;;;;;;;;5082862;28;20044;-80
2022/04/06 13:36:05;;;;;;;2.88;1.30;;;;;;;;;;5067855;28;20404;-81
2022/04/06 13:38:52;;;;;;;4.30;2.28;;;;;;;;;;5076687;28;20048;-81
2022/04/06 13:41:38;;;;;;;5.55;1.80;;;;;;;;;;5076361;28;20045;-83
2022/04/06 13:44:25;;;;;;;4.68;1.70;;;;;;;;;;5083506;28;20496;-81
2022/04/06 13:47:11;;;;;;;5.50;2.00;;;;;;;;;;5082691;28;20029;-80
2022/04/06 13:49:57;;;;;;;2.72;1.70;;;;;;;;;;5076097;28;20040;-81
2022/04/06 13:52:43;;;;;;;4.00;2.20;;;;;;;;;;5066992;28;20550;-82
2022/04/06 13:55:28;;;;;;;3.53;1.88;;;;;;;;;;5067726;28;20040;-84
2022/04/06 13:58:14;;;;;;;2.67;1.52;;;;;;;;;;5067535;28;20040;-84
2022/04/06 14:01:01;;;;;;;4.97;2.40;;;;;;;;;;5067162;28;20044;-83
2022/04/06 14:03:47;;;;;;;6.30;1.63;;;;;;;;;;5053898;28;20044;-82
2022/04/06 14:06:32;;;;;;;3.60;1.90;;;;;;;;;;5075766;28;20045;-82
2022/04/06 14:09:19;;;;;;;10.60;2.28;;;;;;;;;;5053549;28;20044;-82
2022/04/06 14:12:06;;;;;;;3.25;2.03;;;;;;;;;;5075868;28;20472;-83
2022/04/06 14:14:53;;;;;;;3.80;1.88;;;;;;;;;;5053888;28;20476;-82
2022/04/06 14:17:41;;;;;;;3.95;1.98;;;;;;;;;;5075270;28;20040;-84
2022/04/06 14:20:27;;;;;;;5.70;1.80;;;;;;;;;;5076547;28;20045;-83
2022/04/06 14:23:13;;;;;;;3.00;1.95;;;;;;;;;;5075627;28;20049;-82
2022/04/06 14:25:59;;;;;;;8.60;2.38;;;;;;;;;;5075512;28;20053;-82
2022/04/06 14:28:45;;;;;;;7.80;2.50;;;;;;;;;;5066793;28;20429;-83
2022/04/06 14:31:29;;;;;;;2.53;1.58;;;;;;;;;;5082229;28;20044;-83
2022/04/06 14:34:15;;;;;;;3.72;1.80;;;;;;;;;;5081414;28;20045;-84
2022/04/06 14:37:01;;;;;;;4.57;2.00;;;;;;;;;;5074993;28;20041;-81
2022/04/06 14:39:46;;;;;;;3.22;1.42;;;;;;;;;;5060199;28;20056;-81
2022/04/06 14:42:31;;;;;;;5.18;2.22;;;;;;;;;;5081647;28;20044;-83
2022/04/06 14:45:18;;;;;;;2.88;1.90;;;;;;;;;;5074718;28;20048;-82
2022/04/06 14:48:04;;;;;;;6.55;1.83;;;;;;;;;;5066271;28;20048;-81
2022/04/06 14:50:51;;;;;;;7.13;2.42;;;;;;;;;;5075106;28;20044;-80
2022/04/06 14:53:37;;;;;;;4.93;2.17;;;;;;;;;;5074448;28;20036;-82
2022/04/06 14:56:22;;;;;;;5.22;2.00;;;;;;;;;;5080324;28;20075;-83
2022/04/06 14:59:09;;;;;;;3.53;2.00;;;;;;;;;;5075009;28;20045;-83
2022/04/06 15:01:54;;;;;;;11.65;2.38;;;;;;;;;;5066513;28;20412;-87
2022/04/06 15:04:41;;;;;;;1.63;1.40;;;;;;;;;;5052429;28;20048;-83
2022/04/06 15:07:27;;;;;;;4.75;2.30;;;;;;;;;;5080843;28;20040;-81
2022/04/06 15:10:13;;;;;;;7.13;2.10;;;;;;;;;;5066121;28;20044;-81
2022/04/06 15:12:59;;;;;;;3.17;1.88;;;;;;;;;;5066929;28;20052;-81
2022/04/06 15:15:45;;;;;;;5.65;2.42;;;;;;;;;;5080530;28;20040;-81
2022/04/06 15:18:31;;;;;;;5.95;2.30;;;;;;;;;;5075707;28;20060;-81
2022/04/06 15:21:17;;;;;;;2.85;1.77;;;;;;;;;;5079158;28;20040;-82
2022/04/06 15:24:04;;;;;;;4.82;2.40;;;;;;;;;;5085504;28;20056;-80
2022/04/06 15:26:50;;;;;;;4.45;2.45;;;;;;;;;;5073371;28;20052;-81
2022/04/06 15:29:36;;;;;;;4.97;2.50;;;;;;;;;;5081475;28;20393;-82
2022/04/06 15:32:22;;;;;;;4.50;2.10;;;;;;;;;;5071269;28;20048;-82
2022/04/06 15:38:12;;;;;;;2.85;1.55;;;;;;;;;;5082971;28;20044;-82
2022/04/06 15:40:57;;;;;;;4.38;2.97;;;;;;;;;;5078377;28;20036;-81
2022/04/06 15:43:43;;;;;;;9.30;3.40;;;;;;;;;;5070164;28;20049;-80
2022/04/06 15:46:28;;;;;;;6.45;3.28;;;;;;;;;;5072425;28;20485;-81
2022/04/06 15:49:14;;;;;;;6.20;3.03;;;;;;;;;;5086592;28;20044;-82
2022/04/06 15:51:59;;;;;;;13.35;5.80;;;;;;;;;;5087110;28;20053;-80
2022/04/06 15:54:45;;;;;;;8.45;3.50;;;;;;;;;;5082939;28;20045;-83
2022/04/06 15:57:31;;;;;;;8.43;3.63;;;;;;;;;;5081447;28;20045;-81
2022/04/06 16:00:17;;;;;;;4.90;3.20;;;;;;;;;;5083015;28;20040;-82
2022/04/06 16:03:02;;;;;;;6.28;3.28;;;;;;;;;;5080728;28;20053;-83
2022/04/06 16:05:47;;;;;;;11.30;3.70;;;;;;;;;;5073453;28;20423;-82
2022/04/06 16:08:33;;;;;;;6.30;3.63;;;;;;;;;;5080504;28;20053;-83
2022/04/06 16:11:18;;;;;;;12.75;6.93;;;;;;;;;;5074101;28;20040;-84
2022/04/06 16:14:04;;;;;;;8.88;4.43;;;;;;;;;;5078972;28;20041;-83
2022/04/06 16:16:50;;;;;;;10.55;5.57;;;;;;;;;;5074274;28;20033;-84
2022/04/06 16:19:35;;;;;;;12.02;4.82;;;;;;;;;;5076610;28;20462;-83
2022/04/06 16:22:21;;;;;;;15.45;5.13;;;;;;;;;;5080339;28;20049;-84
2022/04/06 16:25:07;;;;;;;15.48;5.60;;;;;;;;;;5081499;28;20457;-83
2022/04/06 16:27:53;;;;;;;14.57;7.57;;;;;;;;;;5080504;28;20156;-83
2022/04/06 16:30:38;;;;;;;19.58;10.82;;;;;;;;;;5081134;28;20052;-84
2022/04/06 16:33:23;;;;;;;24.30;11.48;;;;;;;;;;5080183;28;20044;-83
2022/04/06 16:36:09;;;;;;;27.55;12.68;;;;;;;;;;5066701;28;20040;-86
2022/04/06 16:38:55;;;;;;;24.52;12.65;;;;;;;;;;5084647;28;20037;-85